Time;durP1;ratioP1;P1;durP2;ratioP2;P2;SDS_P1;SDS_P2;PMS_P1;PMS_P2;Temp;Humidity;BMP_temperature;BMP_pressure;BME280_temperature;BME280_humidity;BME280_pressure;Samples;Min_cycle;Max_cycle;Signal;HPM_P1;HPM_P2
2023/04/20 00:00:16;;;;;;;;;;;;;;;;;;5174359;27;898;-40
2023/04/20 00:02:44;;;;;;;;;;;;;;;;;;5174166;27;1310;-41
2023/04/20 00:05:12;;;;;;;;;;;;;;;;;;5174315;27;1031;-47
2023/04/20 00:07:42;;;;;;;;;;;;;;;;;;5174377;27;1009;-40
2023/04/20 00:10:11;;;;;;;;;;;;;;;;;;5174114;27;1036;-40
2023/04/20 00:12:38;;;;;;;;;;;;;;;;;;5173985;27;1911;-40
2023/04/20 00:15:06;;;;;;;;;;;;;;;;;;5174177;27;1305;-52
2023/04/20 00:17:33;;;;;;;;;;;;;;;;;;5174284;27;1062;-40
2023/04/20 00:20:02;;;;;;;;;;;;;;;;;;5174063;27;1149;-39
2023/04/20 00:22:30;;;;;;;;;;;;;;;;;;5174055;27;1030;-41
2023/04/20 00:24:57;;;;;;;;;;;;;;;;;;5174128;27;1204;-40
2023/04/20 00:27:24;;;;;;;;;;;;;;;;;;5173674;27;1382;-40
2023/04/20 00:29:51;;;;;;;;;;;;;;;;;;5174148;27;1025;-40
2023/04/20 00:32:18;;;;;;;;;;;;;;;;;;5154872;27;1972;-39
2023/04/20 00:34:47;;;;;;;;;;;;;;;;;;5155179;27;1231;-41
2023/04/20 00:37:15;;;;;;;;;;;;;;;;;;5173896;27;1595;-49
2023/04/20 00:39:42;;;;;;;;;;;;;;;;;;5173698;27;1250;-39
2023/04/20 00:42:09;;;;;;;;;;;;;;;;;;5173426;27;916;-45
2023/04/20 00:44:37;;;;;;;;;;;;;;;;;;5154825;27;1515;-47
2023/04/20 00:47:04;;;;;;;;;;;;;;;;;;5167571;27;1293;-45
2023/04/20 00:49:32;;;;;;;;;;;;;;;;;;5152918;27;1174;-42
2023/04/20 00:51:59;;;;;;;;;;;;;;;;;;5134069;27;1982;-58
2023/04/20 00:54:27;;;;;;;;;;;;;;;;;;5134062;27;1227;-40
2023/04/20 00:56:56;;;;;;;;;;;;;;;;;;5152683;27;1176;-40
2023/04/20 00:59:24;;;;;;;;;;;;;;;;;;5152796;27;1157;-39
2023/04/20 01:01:52;;;;;;;;;;;;;;;;;;5134033;27;1236;-59
2023/04/20 01:04:19;;;;;;;;;;;;;;;;;;5156402;27;1235;-45
2023/04/20 01:06:46;;;;;;;;;;;;;;;;;;5157083;27;1002;-55
2023/04/20 01:09:14;;;;;;;;;;;;;;;;;;5137951;27;1349;-41
2023/04/20 01:11:43;;;;;;;;;;;;;;;;;;5156701;27;1978;-51
2023/04/20 01:14:15;;;;;;;;;;;;;;;;;;5137705;27;1204;-58
2023/04/20 01:16:43;;;;;;;;;;;;;;;;;;5137471;27;955;-42
2023/04/20 01:19:11;;;;;;;;;;;;;;;;;;5138268;27;968;-41
2023/04/20 01:21:39;;;;;;;;;;;;;;;;;;5156246;27;1138;-55
2023/04/20 01:24:06;;;;;;;;;;;;;;;;;;5138110;27;1344;-40
2023/04/20 01:26:34;;;;;;;;;;;;;;;;;;5156081;27;1372;-40
2023/04/20 01:29:01;;;;;;;;;;;;;;;;;;5156441;27;1037;-40
2023/04/20 01:31:28;;;;;;;;;;;;;;;;;;5155962;27;1972;-40
2023/04/20 01:33:59;;;;;;;;;;;;;;;;;;5156300;27;1032;-40
2023/04/20 01:36:26;;;;;;;;;;;;;;;;;;5137401;27;1079;-40
2023/04/20 01:38:53;;;;;;;;;;;;;;;;;;5156034;27;1113;-40
2023/04/20 01:41:21;;;;;;;;;;;;;;;;;;5156320;27;943;-41
2023/04/20 01:43:48;;;;;;;;;;;;;;;;;;5155975;27;1135;-55
2023/04/20 01:46:15;;;;;;;;;;;;;;;;;;5155469;27;1638;-40
2023/04/20 01:48:43;;;;;;;;;;;;;;;;;;5176298;27;1293;-40
2023/04/20 01:51:10;;;;;;;;;;;;;;;;;;5176938;27;1903;-53
2023/04/20 01:53:38;;;;;;;;;;;;;;;;;;5157667;27;1185;-46
2023/04/20 01:56:06;;;;;;;;;;;;;;;;;;5158513;27;1487;-40
2023/04/20 01:58:33;;;;;;;;;;;;;;;;;;5158196;27;1208;-40
2023/04/20 02:01:01;;;;;;;;;;;;;;;;;;5157841;27;2321;-41
2023/04/20 02:03:28;;;;;;;;;;;;;;;;;;5176683;27;1065;-40
2023/04/20 02:05:56;;;;;;;;;;;;;;;;;;5157846;27;1464;-43
2023/04/20 02:08:28;;;;;;;;;;;;;;;;;;5157882;27;1376;-41
2023/04/20 02:10:55;;;;;;;;;;;;;;;;;;5157476;27;1898;-40
2023/04/20 02:13:25;;;;;;;;;;;;;;;;;;5176442;27;1023;-40
2023/04/20 02:15:53;;;;;;;;;;;;;;;;;;5171499;27;1126;-39
2023/04/20 02:18:21;;;;;;;;;;;;;;;;;;5136276;27;1382;-40
2023/04/20 02:20:50;;;;;;;;;;;;;;;;;;5155467;27;1068;-48
2023/04/20 02:23:17;;;;;;;;;;;;;;;;;;5155418;27;1065;-41
2023/04/20 02:25:45;;;;;;;;;;;;;;;;;;5155280;27;1000;-40
2023/04/20 02:28:12;;;;;;;;;;;;;;;;;;5136845;27;1642;-39
2023/04/20 02:30:39;;;;;;;;;;;;;;;;;;5154888;27;1167;-43
2023/04/20 02:33:06;;;;;;;;;;;;;;;;;;5155114;27;1913;-40
2023/04/20 02:35:34;;;;;;;;;;;;;;;;;;5155062;27;1054;-41
2023/04/20 02:38:01;;;;;;;;;;;;;;;;;;5136411;27;1376;-40
2023/04/20 02:40:29;;;;;;;;;;;;;;;;;;5154803;27;949;-45
2023/04/20 02:42:57;;;;;;;;;;;;;;;;;;5136427;27;1338;-40
2023/04/20 02:45:26;;;;;;;;;;;;;;;;;;5135747;27;1454;-40
2023/04/20 02:47:53;;;;;;;;;;;;;;;;;;5154501;27;1297;-40
2023/04/20 02:50:21;;;;;;;;;;;;;;;;;;5136216;27;1200;-41
2023/04/20 02:53:04;;;;;;;;;;;;;;;;;;5136248;27;1928;-41
2023/04/20 02:55:34;;;;;;;;;;;;;;;;;;5136574;27;1322;-40
2023/04/20 02:58:09;;;;;;;;;;;;;;;;;;5136573;27;1367;-40
2023/04/20 03:01:01;;;;;;;;;;;;;;;;;;5148633;27;1138;-41
2023/04/20 03:03:30;;;;;;;;;;;;;;;;;;5115597;27;1381;-41
2023/04/20 03:05:58;;;;;;;;;;;;;;;;;;5115549;27;1557;-40
2023/04/20 03:08:26;;;;;;;;;;;;;;;;;;5115209;27;1433;-42
2023/04/20 03:10:55;;;;;;;;;;;;;;;;;;5115570;27;1435;-40
2023/04/20 03:13:22;;;;;;;;;;;;;;;;;;5115092;27;1973;-41
2023/04/20 03:16:00;;;;;;;;;;;;;;;;;;5115141;27;2153;-47
2023/04/20 03:18:35;;;;;;;;;;;;;;;;;;5114823;27;1435;-43
2023/04/20 03:21:03;;;;;;;;;;;;;;;;;;5133562;27;1129;-41
2023/04/20 03:23:30;;;;;;;;;;;;;;;;;;5133522;27;1144;-41
2023/04/20 03:26:00;;;;;;;;;;;;;;;;;;5132147;27;2052;-42
2023/04/20 03:28:50;;;;;;;;;;;;;;;;;;5131034;27;1740;-46
2023/04/20 03:31:22;;;;;;;;;;;;;;;;;;5114818;27;1959;-48
2023/04/20 03:33:51;;;;;;;;;;;;;;;;;;5133070;27;1297;-49
2023/04/20 03:36:19;;;;;;;;;;;;;;;;;;5133557;27;1138;-44
2023/04/20 03:38:46;;;;;;;;;;;;;;;;;;5133428;27;1565;-43
2023/04/20 03:41:13;;;;;;;;;;;;;;;;;;5132989;27;1033;-40
2023/04/20 03:43:40;;;;;;;;;;;;;;;;;;5114763;27;1178;-50
2023/04/20 03:46:08;;;;;;;;;;;;;;;;;;5132845;27;1138;-41
2023/04/20 03:48:35;;;;;;;;;;;;;;;;;;5152482;27;1349;-44
2023/04/20 03:51:03;;;;;;;;;;;;;;;;;;5174265;27;973;-40
2023/04/20 03:53:30;;;;;;;;;;;;;;;;;;5155558;27;1994;-39
2023/04/20 03:55:59;;;;;;;;;;;;;;;;;;5155825;27;1252;-41
2023/04/20 03:58:27;;;;;;;;;;;;;;;;;;5155530;27;1190;-40
2023/04/20 04:01:12;;;;;;;;;;;;;;;;;;5155628;27;1505;-41
2023/04/20 04:03:43;;;;;;;;;;;;;;;;;;5155405;27;1210;-43
2023/04/20 04:06:11;;;;;;;;;;;;;;;;;;5155236;27;2113;-40
2023/04/20 04:08:39;;;;;;;;;;;;;;;;;;5155355;27;1295;-40
2023/04/20 04:11:07;;;;;;;;;;;;;;;;;;5174480;27;1159;-39
2023/04/20 04:13:34;;;;;;;;;;;;;;;;;;5174045;27;1980;-40
2023/04/20 04:16:05;;;;;;;;;;;;;;;;;;5155494;27;2405;-47
2023/04/20 04:18:32;;;;;;;;;;;;;;;;;;5173817;27;1113;-41
2023/04/20 04:21:05;;;;;;;;;;;;;;;;;;5155384;27;2330;-40
2023/04/20 04:23:34;;;;;;;;;;;;;;;;;;5155081;27;2393;-40
2023/04/20 04:26:12;;;;;;;;;;;;;;;;;;5155477;27;1240;-40
2023/04/20 04:28:44;;;;;;;;;;;;;;;;;;5155390;27;1443;-42
2023/04/20 04:31:17;;;;;;;;;;;;;;;;;;5154779;27;1248;-56
2023/04/20 04:33:48;;;;;;;;;;;;;;;;;;5173657;27;1976;-40
2023/04/20 04:36:27;;;;;;;;;;;;;;;;;;5154947;27;1259;-41
2023/04/20 04:38:58;;;;;;;;;;;;;;;;;;5154868;27;1489;-44
2023/04/20 04:41:26;;;;;;;;;;;;;;;;;;5154814;27;1272;-50
2023/04/20 04:44:04;;;;;;;;;;;;;;;;;;5154550;27;1498;-41
2023/04/20 04:46:35;;;;;;;;;;;;;;;;;;5153185;27;1542;-40
2023/04/20 04:49:03;;;;;;;;;;;;;;;;;;5153050;27;943;-42
2023/04/20 04:51:30;;;;;;;;;;;;;;;;;;5117170;27;1325;-39
2023/04/20 04:54:03;;;;;;;;;;;;;;;;;;5152985;27;1909;-55
2023/04/20 04:56:45;;;;;;;;;;;;;;;;;;5152673;27;1253;-41
2023/04/20 04:59:19;;;;;;;;;;;;;;;;;;5152153;27;1353;-41
2023/04/20 05:01:52;;;;;;;;;;;;;;;;;;5153216;27;1162;-40
2023/04/20 05:04:32;;;;;;;;;;;;;;;;;;5152343;27;1351;-40
2023/04/20 05:07:06;;;;;;;;;;;;;;;;;;5152619;27;1299;-41
2023/04/20 05:09:40;;;;;;;;;;;;;;;;;;5152273;27;1014;-42
2023/04/20 05:12:18;;;;;;;;;;;;;;;;;;5135448;27;1913;-40
2023/04/20 05:14:51;;;;;;;;;;;;;;;;;;5152457;27;1193;-41
2023/04/20 05:17:27;;;;;;;;;;;;;;;;;;5136061;27;1195;-41
2023/04/20 05:20:01;;;;;;;;;;;;;;;;;;5151278;27;1111;-42
2023/04/20 05:22:35;;;;;;;;;;;;;;;;;;5150993;27;1078;-46
2023/04/20 05:25:08;;;;;;;;;;;;;;;;;;5151342;27;1121;-51
2023/04/20 05:27:43;;;;;;;;;;;;;;;;;;5151459;27;1236;-43
2023/04/20 05:30:18;;;;;;;;;;;;;;;;;;5151657;27;1089;-48
2023/04/20 05:32:54;;;;;;;;;;;;;;;;;;5152490;27;1905;-41
2023/04/20 05:35:34;;;;;;;;;;;;;;;;;;5134940;27;1135;-48
2023/04/20 05:38:08;;;;;;;;;;;;;;;;;;5151837;27;1081;-40
2023/04/20 05:40:40;;;;;;;;;;;;;;;;;;5152005;27;1066;-40
2023/04/20 05:43:07;;;;;;;;;;;;;;;;;;5151292;27;1098;-41
2023/04/20 05:45:34;;;;;;;;;;;;;;;;;;5151776;27;1279;-40
2023/04/20 05:48:02;;;;;;;;;;;;;;;;;;5166259;27;1293;-56
2023/04/20 05:50:30;;;;;;;;;;;;;;;;;;5174516;27;1155;-43
2023/04/20 05:52:57;;;;;;;;;;;;;;;;;;5176858;27;1915;-50
2023/04/20 05:55:25;;;;;;;;;;;;;;;;;;5176903;27;1360;-44
2023/04/20 05:57:52;;;;;;;;;;;;;;;;;;5176890;27;1285;-52
2023/04/20 06:00:20;;;;;;;;;;;;;;;;;;5176637;27;1061;-41
2023/04/20 06:02:48;;;;;;;;;;;;;;;;;;5175871;27;1839;-40
2023/04/20 06:05:16;;;;;;;;;;;;;;;;;;5176580;27;1438;-46
2023/04/20 06:07:43;;;;;;;;;;;;;;;;;;5176598;27;1703;-39
2023/04/20 06:10:10;;;;;;;;;;;;;;;;;;5176578;27;1206;-41
2023/04/20 06:12:37;;;;;;;;;;;;;;;;;;5176608;27;1902;-46
2023/04/20 06:15:07;;;;;;;;;;;;;;;;;;5176322;27;1052;-40
2023/04/20 06:17:35;;;;;;;;;;;;;;;;;;5176115;27;937;-45
2023/04/20 06:20:03;;;;;;;;;;;;;;;;;;5176483;27;1057;-41
2023/04/20 06:22:31;;;;;;;;;;;;;;;;;;5176063;27;997;-43
2023/04/20 06:24:59;;;;;;;;;;;;;;;;;;5176071;27;1270;-50
2023/04/20 06:27:26;;;;;;;;;;;;;;;;;;5176528;27;907;-40
2023/04/20 06:29:53;;;;;;;;;;;;;;;;;;5176037;27;1025;-40
2023/04/20 06:32:20;;;;;;;;;;;;;;;;;;5175707;27;1913;-40
2023/04/20 06:34:49;;;;;;;;;;;;;;;;;;5176139;27;1214;-40
2023/04/20 06:37:16;;;;;;;;;;;;;;;;;;5175673;27;998;-43
2023/04/20 06:39:44;;;;;;;;;;;;;;;;;;5157466;27;1924;-40
2023/04/20 06:42:11;;;;;;;;;;;;;;;;;;5175855;27;1034;-42
2023/04/20 06:44:39;;;;;;;;;;;;;;;;;;5157129;27;1229;-40
2023/04/20 06:47:07;;;;;;;;;;;;;;;;;;5169271;27;1289;-46
2023/04/20 06:49:36;;;;;;;;;;;;;;;;;;5154680;27;1071;-41
2023/04/20 06:52:03;;;;;;;;;;;;;;;;;;5154881;27;1357;-39
2023/04/20 06:54:31;;;;;;;;;;;;;;;;;;5154387;27;1961;-41
2023/04/20 06:56:58;;;;;;;;;;;;;;;;;;5154545;27;964;-40
2023/04/20 06:59:28;;;;;;;;;;;;;;;;;;5154452;27;1066;-51
2023/04/20 07:01:55;;;;;;;;;;;;;;;;;;5154218;27;1142;-43
2023/04/20 07:04:22;;;;;;;;;;;;;;;;;;5154586;27;981;-40
2023/04/20 07:06:50;;;;;;;;;;;;;;;;;;5154154;27;1152;-40
2023/04/20 07:09:20;;;;;;;;;;;;;;;;;;5154108;27;1363;-40
2023/04/20 07:11:47;;;;;;;;;;;;;;;;;;5154242;27;1080;-51
2023/04/20 07:14:14;;;;;;;;;;;;;;;;;;5154449;27;1905;-40
2023/04/20 07:16:41;;;;;;;;;;;;;;;;;;5153967;27;1122;-43
2023/04/20 07:19:08;;;;;;;;;;;;;;;;;;5154029;27;1180;-41
2023/04/20 07:21:36;;;;;;;;;;;;;;;;;;5153789;27;1074;-40
2023/04/20 07:24:03;;;;;;;;;;;;;;;;;;5154739;27;896;-40
2023/04/20 07:26:30;;;;;;;;;;;;;;;;;;5154301;27;1441;-40
2023/04/20 07:28:57;;;;;;;;;;;;;;;;;;5153662;27;1061;-50
2023/04/20 07:31:24;;;;;;;;;;;;;;;;;;5154072;27;1205;-42
2023/04/20 07:33:52;;;;;;;;;;;;;;;;;;5154222;27;1982;-40
2023/04/20 07:36:20;;;;;;;;;;;;;;;;;;5154023;27;1408;-41
2023/04/20 07:38:48;;;;;;;;;;;;;;;;;;5153621;27;1104;-40
2023/04/20 07:41:15;;;;;;;;;;;;;;;;;;5153892;27;1103;-55
2023/04/20 07:43:43;;;;;;;;;;;;;;;;;;5153452;27;977;-40
2023/04/20 07:46:18;;;;;;;;;;;;;;;;;;5153532;27;1346;-40
2023/04/20 07:48:45;;;;;;;;;;;;;;;;;;5153705;27;1432;-41
2023/04/20 07:51:12;;;;;;;;;;;;;;;;;;5152619;27;1063;-39
2023/04/20 07:53:40;;;;;;;;;;;;;;;;;;5151763;27;1933;-41
2023/04/20 07:56:07;;;;;;;;;;;;;;;;;;5151878;27;1009;-41
2023/04/20 07:58:37;;;;;;;;;;;;;;;;;;5152161;27;1281;-40
2023/04/20 08:01:04;;;;;;;;;;;;;;;;;;5152175;27;921;-40
2023/04/20 08:03:32;;;;;;;;;;;;;;;;;;5151756;27;933;-41
2023/04/20 08:05:59;;;;;;;;;;;;;;;;;;5151710;27;1081;-40
2023/04/20 08:08:27;;;;;;;;;;;;;;;;;;5151891;27;959;-40
2023/04/20 08:10:58;;;;;;;;;;;;;;;;;;5151397;27;992;-40
2023/04/20 08:13:26;;;;;;;;;;;;;;;;;;5150922;27;1975;-40
2023/04/20 08:15:54;;;;;;;;;;;;;;;;;;5151205;27;1400;-40
2023/04/20 08:18:21;;;;;;;;;;;;;;;;;;5151234;27;1081;-40
2023/04/20 08:20:50;;;;;;;;;;;;;;;;;;5150530;27;990;-40
2023/04/20 08:23:17;;;;;;;;;;;;;;;;;;5150086;27;1095;-40
2023/04/20 08:25:44;;;;;;;;;;;;;;;;;;5150007;27;1044;-41
2023/04/20 08:28:11;;;;;;;;;;;;;;;;;;5150878;27;1155;-59
2023/04/20 08:30:51;;;;;;;;;;;;;;;;;;5151126;27;1057;-41
2023/04/20 08:33:18;;;;;;;;;;;;;;;;;;5151481;27;1906;-41
2023/04/20 08:35:45;;;;;;;;;;;;;;;;;;5151128;27;1086;-43
2023/04/20 08:38:13;;;;;;;;;;;;;;;;;;5151029;27;1251;-41
2023/04/20 08:40:46;;;;;;;;;;;;;;;;;;5151343;27;1072;-41
2023/04/20 08:43:13;;;;;;;;;;;;;;;;;;5151240;27;1111;-40
2023/04/20 08:45:44;;;;;;;;;;;;;;;;;;5149340;27;1167;-41
2023/04/20 08:48:11;;;;;;;;;;;;;;;;;;5165210;27;1278;-40
2023/04/20 08:50:40;;;;;;;;;;;;;;;;;;5170834;27;1038;-40
2023/04/20 08:53:08;;;;;;;;;;;;;;;;;;5170735;27;1979;-41
2023/04/20 08:55:36;;;;;;;;;;;;;;;;;;5170436;27;1328;-41
2023/04/20 08:58:03;;;;;;;;;;;;;;;;;;5170482;27;884;-39
2023/04/20 09:00:30;;;;;;;;;;;;;;;;;;5169727;27;946;-40
2023/04/20 09:03:00;;;;;;;;;;;;;;;;;;5169930;27;1037;-41
2023/04/20 09:05:28;;;;;;;;;;;;;;;;;;5170356;27;1284;-40
2023/04/20 09:08:01;;;;;;;;;;;;;;;;;;5170251;27;1151;-41
2023/04/20 09:10:38;;;;;;;;;;;;;;;;;;5171564;27;980;-42
2023/04/20 09:13:05;;;;;;;;;;;;;;;;;;5171903;27;1905;-41
2023/04/20 09:15:32;;;;;;;;;;;;;;;;;;5171556;27;1282;-40
2023/04/20 09:18:09;;;;;;;;;;;;;;;;;;5171837;27;951;-45
2023/04/20 09:20:36;;;;;;;;;;;;;;;;;;5171993;27;891;-55
2023/04/20 09:23:11;;;;;;;;;;;;;;;;;;5172942;27;1205;-40
2023/04/20 09:25:39;;;;;;;;;;;;;;;;;;5177764;27;1143;-41
2023/04/20 09:28:07;;;;;;;;;;;;;;;;;;5177262;27;1130;-42
2023/04/20 09:30:42;;;;;;;;;;;;;;;;;;5177502;27;980;-42
2023/04/20 09:33:11;;;;;;;;;;;;;;;;;;5177094;27;1905;-41
2023/04/20 09:35:39;;;;;;;;;;;;;;;;;;5177102;27;1048;-41
2023/04/20 09:38:08;;;;;;;;;;;;;;;;;;5177316;27;935;-41
2023/04/20 09:40:35;;;;;;;;;;;;;;;;;;5176889;27;1121;-43
2023/04/20 09:43:07;;;;;;;;;;;;;;;;;;5177336;27;1269;-40
2023/04/20 09:45:37;;;;;;;;;;;;;;;;;;5177082;27;1087;-41
2023/04/20 09:48:05;;;;;;;;;;;;;;;;;;5162185;27;1376;-41
2023/04/20 09:50:39;;;;;;;;;;;;;;;;;;5156293;27;976;-45
2023/04/20 09:53:15;;;;;;;;;;;;;;;;;;5155785;27;1891;-41
2023/04/20 09:55:47;;;;;;;;;;;;;;;;;;5156112;27;1310;-41
2023/04/20 09:58:16;;;;;;;;;;;;;;;;;;5155936;27;1171;-41
2023/04/20 10:00:43;;;;;;;;;;;;;;;;;;5155531;27;1253;-40
2023/04/20 10:03:14;;;;;;;;;;;;;;;;;;5155930;27;1139;-41
2023/04/20 10:05:42;;;;;;;;;;;;;;;;;;5156082;27;977;-41
2023/04/20 10:08:10;;;;;;;;;;;;;;;;;;5155798;27;992;-41
2023/04/20 10:10:44;;;;;;;;;;;;;;;;;;5155855;27;1135;-41
2023/04/20 10:13:11;;;;;;;;;;;;;;;;;;5155645;27;1964;-42
2023/04/20 10:15:40;;;;;;;;;;;;;;;;;;5155326;27;1136;-41
2023/04/20 10:18:16;;;;;;;;;;;;;;;;;;5155411;27;1184;-41
2023/04/20 10:20:44;;;;;;;;;;;;;;;;;;5155439;27;1284;-41
2023/04/20 10:23:13;;;;;;;;;;;;;;;;;;5155698;27;1157;-41
2023/04/20 10:25:41;;;;;;;;;;;;;;;;;;5155361;27;1070;-41
2023/04/20 10:28:09;;;;;;;;;;;;;;;;;;5154850;27;1197;-41
2023/04/20 10:30:37;;;;;;;;;;;;;;;;;;5155130;27;1076;-43
2023/04/20 10:33:05;;;;;;;;;;;;;;;;;;5155327;27;958;-42
2023/04/20 10:35:42;;;;;;;;;;;;;;;;;;5154945;27;1142;-41
2023/04/20 10:38:11;;;;;;;;;;;;;;;;;;5155185;27;941;-41
2023/04/20 10:40:39;;;;;;;;;;;;;;;;;;5155021;27;1169;-43
2023/04/20 10:43:22;;;;;;;;;;;;;;;;;;5154961;27;997;-41
2023/04/20 10:45:52;;;;;;;;;;;;;;;;;;5155004;27;1231;-41
2023/04/20 10:48:19;;;;;;;;;;;;;;;;;;5155090;27;1278;-42
2023/04/20 10:50:46;;;;;;;;;;;;;;;;;;5155120;27;999;-41
2023/04/20 10:53:20;;;;;;;;;;;;;;;;;;5154978;27;1972;-56
2023/04/20 10:55:56;;;;;;;;;;;;;;;;;;5154768;27;1064;-42
2023/04/20 10:58:24;;;;;;;;;;;;;;;;;;5154615;27;1141;-40
2023/04/20 11:01:00;;;;;;;;;;;;;;;;;;5154439;27;1358;-45
2023/04/20 11:03:28;;;;;;;;;;;;;;;;;;5154359;27;1359;-44
2023/04/20 11:05:59;;;;;;;;;;;;;;;;;;5154587;27;1055;-41
2023/04/20 11:08:37;;;;;;;;;;;;;;;;;;5154442;27;1341;-48
2023/04/20 11:11:05;;;;;;;;;;;;;;;;;;5154606;27;1075;-41
2023/04/20 11:13:34;;;;;;;;;;;;;;;;;;5154115;27;1911;-41
2023/04/20 11:16:09;;;;;;;;;;;;;;;;;;5154647;27;1011;-41
2023/04/20 11:18:47;;;;;;;;;;;;;;;;;;5154469;27;1541;-44
2023/04/20 11:21:14;;;;;;;;;;;;;;;;;;5154338;27;964;-43
2023/04/20 11:23:42;;;;;;;;;;;;;;;;;;5153960;27;1209;-58
2023/04/20 11:26:10;;;;;;;;;;;;;;;;;;5154024;27;1617;-40
2023/04/20 11:28:37;;;;;;;;;;;;;;;;;;5154125;27;1066;-40
2023/04/20 11:31:05;;;;;;;;;;;;;;;;;;5154097;27;1135;-42
2023/04/20 11:33:33;;;;;;;;;;;;;;;;;;5153828;27;1969;-59
2023/04/20 11:36:01;;;;;;;;;;;;;;;;;;5153328;27;1053;-39
2023/04/20 11:38:28;;;;;;;;;;;;;;;;;;5153756;27;931;-50
2023/04/20 11:40:56;;;;;;;;;;;;;;;;;;5154179;27;1157;-54
2023/04/20 11:43:23;;;;;;;;;;;;;;;;;;5153780;27;973;-53
2023/04/20 11:45:50;;;;;;;;;;;;;;;;;;5153680;27;1101;-44
2023/04/20 11:48:18;;;;;;;;;;;;;;;;;;5169591;27;1344;-52
2023/04/20 11:50:45;;;;;;;;;;;;;;;;;;5174487;27;1533;-40
2023/04/20 11:53:13;;;;;;;;;;;;;;;;;;5174161;27;1037;-41
2023/04/20 11:55:40;;;;;;;;;;;;;;;;;;5174419;27;1910;-42
2023/04/20 11:58:08;;;;;;;;;;;;;;;;;;5173500;27;1095;-45
2023/04/20 12:00:35;;;;;;;;;;;;;;;;;;5173974;27;1472;-41
2023/04/20 12:03:02;;;;;;;;;;;;;;;;;;5174475;27;954;-46
2023/04/20 12:05:30;;;;;;;;;;;;;;;;;;5173330;27;1327;-41
2023/04/20 12:07:57;;;;;;;;;;;;;;;;;;5174516;27;1142;-42
2023/04/20 12:10:24;;;;;;;;;;;;;;;;;;5173940;27;1209;-41
2023/04/20 12:12:52;;;;;;;;;;;;;;;;;;5174346;27;954;-40
2023/04/20 12:15:19;;;;;;;;;;;;;;;;;;5174254;27;1913;-40
2023/04/20 12:17:46;;;;;;;;;;;;;;;;;;5173646;27;999;-40
2023/04/20 12:20:14;;;;;;;;;;;;;;;;;;5173984;27;931;-40
2023/04/20 12:22:41;;;;;;;;;;;;;;;;;;5173802;27;1005;-40
2023/04/20 12:25:08;;;;;;;;;;;;;;;;;;5173826;27;1143;-40
2023/04/20 12:27:36;;;;;;;;;;;;;;;;;;5173850;27;1251;-40
2023/04/20 12:30:03;;;;;;;;;;;;;;;;;;5155542;27;1143;-40
2023/04/20 12:32:30;;;;;;;;;;;;;;;;;;5173621;27;937;-41
2023/04/20 12:34:58;;;;;;;;;;;;;;;;;;5173898;27;1909;-40
2023/04/20 12:37:26;;;;;;;;;;;;;;;;;;5173553;27;1327;-41
2023/04/20 12:39:53;;;;;;;;;;;;;;;;;;5173900;27;1111;-41
2023/04/20 12:42:20;;;;;;;;;;;;;;;;;;5155652;27;1184;-38
2023/04/20 12:44:47;;;;;;;;;;;;;;;;;;5173883;27;1181;-40
2023/04/20 12:47:14;;;;;;;;;;;;;;;;;;5165700;27;1772;-40
2023/04/20 12:49:41;;;;;;;;;;;;;;;;;;5152847;27;1084;-40
2023/04/20 12:52:09;;;;;;;;;;;;;;;;;;5152836;27;996;-41
2023/04/20 12:54:36;;;;;;;;;;;;;;;;;;5153213;27;1968;-41
2023/04/20 12:57:04;;;;;;;;;;;;;;;;;;5112274;27;9651;-40
2023/04/20 12:59:31;;;;;;;;;;;;;;;;;;5111312;28;1121;-41
2023/04/20 13:01:58;;;;;;;;;;;;;;;;;;5111484;28;1020;-40
2023/04/20 13:04:26;;;;;;;;;;;;;;;;;;5111485;28;1173;-43
2023/04/20 13:06:54;;;;;;;;;;;;;;;;;;5111558;28;977;-40
2023/04/20 13:09:25;;;;;;;;;;;;;;;;;;5111535;28;1375;-41
2023/04/20 13:11:53;;;;;;;;;;;;;;;;;;5111576;28;924;-40
2023/04/20 13:14:20;;;;;;;;;;;;;;;;;;5111096;28;1909;-40
2023/04/20 13:16:48;;;;;;;;;;;;;;;;;;5111132;28;1308;-40
2023/04/20 13:19:15;;;;;;;;;;;;;;;;;;5111347;28;1080;-40
2023/04/20 13:21:42;;;;;;;;;;;;;;;;;;5111084;28;1325;-40
2023/04/20 13:24:10;;;;;;;;;;;;;;;;;;5110791;28;1183;-40
2023/04/20 13:26:37;;;;;;;;;;;;;;;;;;5111121;28;1056;-41
2023/04/20 13:29:04;;;;;;;;;;;;;;;;;;5110884;28;936;-40
2023/04/20 13:31:32;;;;;;;;;;;;;;;;;;5111296;28;1009;-40
2023/04/20 13:33:59;;;;;;;;;;;;;;;;;;5110935;28;1913;-40
2023/04/20 13:36:27;;;;;;;;;;;;;;;;;;5111428;28;1191;-41
2023/04/20 13:38:54;;;;;;;;;;;;;;;;;;5111116;28;997;-40
2023/04/20 13:41:24;;;;;;;;;;;;;;;;;;5110823;28;1230;-41
2023/04/20 13:43:52;;;;;;;;;;;;;;;;;;5110656;28;1163;-41
2023/04/20 13:46:20;;;;;;;;;;;;;;;;;;5110874;28;1699;-40
2023/04/20 13:48:47;;;;;;;;;;;;;;;;;;5090573;28;1396;-38
2023/04/20 13:51:16;;;;;;;;;;;;;;;;;;5090482;28;1052;-40
2023/04/20 13:53:43;;;;;;;;;;;;;;;;;;5090491;28;946;-40
2023/04/20 13:56:11;;;;;;;;;;;;;;;;;;5089933;28;1906;-40
2023/04/20 13:58:38;;;;;;;;;;;;;;;;;;5090616;28;1138;-40
2023/04/20 14:01:10;;;;;;;;;;;;;;;;;;5090558;28;994;-40
2023/04/20 14:03:37;;;;;;;;;;;;;;;;;;5090746;28;1212;-40
2023/04/20 14:06:04;;;;;;;;;;;;;;;;;;5090438;28;1081;-39
2023/04/20 14:08:32;;;;;;;;;;;;;;;;;;5090081;28;1077;-40
2023/04/20 14:10:59;;;;;;;;;;;;;;;;;;5091781;28;1115;-39
2023/04/20 14:13:27;;;;;;;;;;;;;;;;;;5094280;28;1321;-41
2023/04/20 14:15:56;;;;;;;;;;;;;;;;;;5094129;28;1973;-40
2023/04/20 14:18:24;;;;;;;;;;;;;;;;;;5093729;28;1171;-37
2023/04/20 14:20:51;;;;;;;;;;;;;;;;;;5093852;28;1227;-40
2023/04/20 14:23:19;;;;;;;;;;;;;;;;;;5093704;28;1344;-39
2023/04/20 14:25:46;;;;;;;;;;;;;;;;;;5094051;28;916;-40
2023/04/20 14:28:15;;;;;;;;;;;;;;;;;;5093978;28;1075;-41
2023/04/20 14:30:44;;;;;;;;;;;;;;;;;;5093802;28;1078;-40
2023/04/20 14:33:11;;;;;;;;;;;;;;;;;;5093663;28;1038;-39
2023/04/20 14:35:39;;;;;;;;;;;;;;;;;;5092684;28;1979;-40
2023/04/20 14:38:07;;;;;;;;;;;;;;;;;;5093317;28;1351;-39
2023/04/20 14:40:34;;;;;;;;;;;;;;;;;;5093347;28;1139;-39
2023/04/20 14:43:01;;;;;;;;;;;;;;;;;;5093427;28;1056;-40
2023/04/20 14:45:28;;;;;;;;;;;;;;;;;;5093746;28;1333;-40
2023/04/20 14:47:56;;;;;;;;;;;;;;;;;;5106024;28;1420;-40
2023/04/20 14:50:26;;;;;;;;;;;;;;;;;;5113568;28;1024;-40
2023/04/20 14:52:53;;;;;;;;;;;;;;;;;;5113975;28;996;-40
2023/04/20 14:55:23;;;;;;;;;;;;;;;;;;5113204;28;1949;-40
2023/04/20 14:57:53;;;;;;;;;;;;;;;;;;5113178;28;1336;-38
2023/04/20 15:00:22;;;;;;;;;;;;;;;;;;5113700;28;1078;-39
2023/04/20 15:02:50;;;;;;;;;;;;;;;;;;5113619;28;1007;-39
2023/04/20 15:05:17;;;;;;;;;;;;;;;;;;5113188;28;1130;-40
2023/04/20 15:07:45;;;;;;;;;;;;;;;;;;5112225;28;1831;-39
2023/04/20 15:10:12;;;;;;;;;;;;;;;;;;5112134;28;1944;-40
2023/04/20 15:12:39;;;;;;;;;;;;;;;;;;5112061;28;1757;-40
2023/04/20 15:15:07;;;;;;;;;;;;;;;;;;5111885;28;2042;-39
2023/04/20 15:17:35;;;;;;;;;;;;;;;;;;5111914;28;2016;-40
2023/04/20 15:20:03;;;;;;;;;;;;;;;;;;5112015;28;2051;-40
2023/04/20 15:22:30;;;;;;;;;;;;;;;;;;5112235;27;2047;-40
2023/04/20 15:24:57;;;;;;;;;;;;;;;;;;5111793;28;1753;-40
2023/04/20 15:27:24;;;;;;;;;;;;;;;;;;5111503;28;2234;-39
2023/04/20 15:29:52;;;;;;;;;;;;;;;;;;5111454;28;1904;-40
2023/04/20 15:32:19;;;;;;;;;;;;;;;;;;5111480;28;2091;-40
2023/04/20 15:34:46;;;;;;;;;;;;;;;;;;5111342;28;1966;-39
2023/04/20 15:37:14;;;;;;;;;;;;;;;;;;5111190;28;1863;-39
2023/04/20 15:39:41;;;;;;;;;;;;;;;;;;5111563;28;2018;-39
2023/04/20 15:42:08;;;;;;;;;;;;;;;;;;5111194;28;2076;-40
2023/04/20 15:44:35;;;;;;;;;;;;;;;;;;5112123;28;1920;-40
2023/04/20 15:47:03;;;;;;;;;;;;;;;;;;5107023;28;2038;-40
2023/04/20 15:49:30;;;;;;;;;;;;;;;;;;5092573;28;1848;-40
2023/04/20 15:51:58;;;;;;;;;;;;;;;;;;5092606;28;2104;-39
2023/04/20 15:54:25;;;;;;;;;;;;;;;;;;5092235;28;1889;-39
2023/04/20 15:56:52;;;;;;;;;;;;;;;;;;5091771;28;1987;-39
2023/04/20 15:59:20;;;;;;;;;;;;;;;;;;5091763;28;2032;-39
2023/04/20 16:01:47;;;;;;;;;;;;;;;;;;5092055;28;1861;-39
2023/04/20 16:04:15;;;;;;;;;;;;;;;;;;5092572;28;2048;-40
2023/04/20 16:06:42;;;;;;;;;;;;;;;;;;5092081;28;2128;-55
2023/04/20 16:09:09;;;;;;;;;;;;;;;;;;5091846;28;1949;-39
2023/04/20 16:11:38;;;;;;;;;;;;;;;;;;5091636;28;1968;-39
2023/04/20 16:14:05;;;;;;;;;;;;;;;;;;5092096;28;1794;-40
2023/04/20 16:16:33;;;;;;;;;;;;;;;;;;5091584;28;2052;-40
2023/04/20 16:19:00;;;;;;;;;;;;;;;;;;5092165;28;1936;-40
2023/04/20 16:21:27;;;;;;;;;;;;;;;;;;5091585;28;2015;-39
2023/04/20 16:23:55;;;;;;;;;;;;;;;;;;5091708;28;1933;-40
2023/04/20 16:26:26;;;;;;;;;;;;;;;;;;5091663;28;1857;-40
2023/04/20 16:28:53;;;;;;;;;;;;;;;;;;5091650;28;2082;-40
2023/04/20 16:31:20;;;;;;;;;;;;;;;;;;5091893;28;1844;-40
2023/04/20 16:33:47;;;;;;;;;;;;;;;;;;5090985;28;2108;-40
2023/04/20 16:36:17;;;;;;;;;;;;;;;;;;5091491;28;1979;-39
2023/04/20 16:38:46;;;;;;;;;;;;;;;;;;5091298;28;2044;-47
2023/04/20 16:41:13;;;;;;;;;;;;;;;;;;5091357;28;2004;-40
2023/04/20 16:43:41;;;;;;;;;;;;;;;;;;5091405;28;2074;-39
2023/04/20 16:46:11;;;;;;;;;;;;;;;;;;5091276;28;1896;-39
2023/04/20 16:48:39;;;;;;;;;;;;;;;;;;5110455;28;1938;-40
2023/04/20 16:51:07;;;;;;;;;;;;;;;;;;5111267;28;2041;-39
2023/04/20 16:53:34;;;;;;;;;;;;;;;;;;5111766;28;1921;-40
2023/04/20 16:56:01;;;;;;;;;;;;;;;;;;5111556;28;1941;-39
2023/04/20 16:58:28;;;;;;;;;;;;;;;;;;5111101;28;2330;-40
2023/04/20 17:00:56;;;;;;;;;;;;;;;;;;5111097;28;2107;-59
2023/04/20 17:03:23;;;;;;;;;;;;;;;;;;5110863;28;2055;-40
2023/04/20 17:05:50;;;;;;;;;;;;;;;;;;5109618;28;1975;-39
2023/04/20 17:08:17;;;;;;;;;;;;;;;;;;5109193;28;1964;-39
2023/04/20 17:10:45;;;;;;;;;;;;;;;;;;5109290;28;1820;-40
2023/04/20 17:13:12;;;;;;;;;;;;;;;;;;5109838;28;1925;-40
2023/04/20 17:15:41;;;;;;;;;;;;;;;;;;5109398;28;2128;-40